Frederika, Iowa
Current Conditions -  °F | °C
As of 5:15 PM on Wednesday 22 Oct 2014 (Local Time) from KCCY Reporting Station
Overcast Overcast  
Wind Chill: 15°   Ceiling: 6000
Heat Index: 15°   Visibility: 10mi
Dew Point:   Wind: 12mph
Humidity: 48%   Direction: 150°SSE
Pressure: 30.14"   Gusts: 21mph
Location:  42.88°N, 92.31°W
Report Text: KCCY 222215Z AUTO 15010G18KT 10SM BKN060 OVC075 15/04 A3014 RMK AO2
Loading
Personal Weather Stations






























Interactive Weather Map
Tropical Storm Tracking
New forecast layout! Learn more

10-Day Weather Forecast

Advertisements
Track Severe Weather on mobile